Dream Angel — 3EEV — position and weather

sailwx.info

Track history (hours):
 
Tides and Currents Weather Stations Pressure Air Temp Water Temp Dewpoint Dewpoint Depression Visibility Wind Speed Wind Dir Waves Ship Positions

Dream Angel

Last reported at 2016-May-15 23:15 UTC. Time now 2016-May-27 02:17 UTC.
Position N 01°16' E 104°12'.
Warning: this ship's position is 11 days out of date.

Length 187 m; draft 6.7 m.

Type: Cargo ship. MMSI: 371820000.

Date/timePositionNaut miles runAvg speedWind from/ knotsBaromVisibWave heightAir tempDewpointWater temp
2016-May-15 23:15N 01°16' E 104°12'710.3
2016-May-15 22:33N 01°19' E 104°05'8 8.3
2016-May-15 21:32N 01°24' E 103°58'6 6.2
2016-May-15 20:33N 01°27' E 103°53'3 0.5
2016-May-15 14:21N 01°28' E 103°50'2 2.3
2016-May-15 13:29N 01°27' E 103°52'9 9.7
2016-May-15 12:31N 01°24' E 104°01'5 5.7
2016-May-15 11:33N 01°19' E 104°04'3 2.5
2016-May-15 10:33N 01°17' E 104°03'9 8.9
2016-May-15 09:33N 01°14' E 103°54'9 8.6
2016-May-15 08:34N 01°15' E 103°46'2 1.8
2016-May-15 07:34N 01°17' E 103°45'0 0.0
2016-May-15 06:34N 01°17' E 103°45'0 0.0
2016-May-15 05:33N 01°17' E 103°45'0 0.0
2016-May-15 04:33N 01°17' E 103°45'0 0.0
2016-May-15 03:34N 01°17' E 103°45'0 0.0
2016-May-15 02:33N 01°17' E 103°45'0 0.0
2016-May-15 01:34N 01°17' E 103°45'0 0.0
2016-May-15 00:34N 01°17' E 103°45'0 0.0
2016-May-14 23:34N 01°17' E 103°45'3 2.8
2016-May-14 22:34N 01°15' E 103°47'8 7.8
2016-May-14 21:33N 01°14' E 103°55'6 6.5
2016-May-14 20:34N 01°16' E 104°01'1210.0
2016-May-14 19:22N 01°17' E 104°13'  
2016-May-08 09:33N 22°18' E 114°06'2 1.7
2016-May-08 08:17N 22°20' E 114°05'0 0.0
2016-May-08 03:15N 22°20' E 114°05'2 2.5
2016-May-08 02:34N 22°18' E 114°06'15 6.2
2016-May-08 00:08N 22°08' E 114°18'4 6.8
2016-May-07 23:33N 22°08' E 114°22'1212.0
2016-May-07 22:33N 22°09' E 114°35'12317.5
2016-May-07 15:31N 22°44' E 116°43'2116.8
2016-May-07 14:15N 22°57' E 117°01'1316.5
2016-May-07 13:28N 23°05' E 117°12'6616.8
2016-May-07 09:33N 23°44' E 118°10'1817.7
2016-May-07 08:33N 23°54' E 118°25'1918.1
2016-May-07 07:30N 24°06' E 118°42'1718.4
2016-May-07 06:33N 24°18' E 118°55'1818.0
2016-May-07 05:33N 24°30' E 119°10'1818.3
2016-May-07 04:33N 24°43' E 119°25'1818.2
2016-May-07 03:33N 24°56' E 119°39'  
Track history (hours):
 
Tides and Currents Weather Stations Pressure Air Temp Water Temp Dewpoint Dewpoint Depression Visibility Wind Speed Wind Dir Waves Ship Positions

Dream Angel

Last reported at 2016-May-15 23:15 UTC. Time now 2016-May-27 02:17 UTC.
Position N 01°16' E 104°12'.
Warning: this ship's position is 11 days out of date.

Length 187 m; draft 6.7 m.

Type: Cargo ship. MMSI: 371820000.

Date/timePositionNaut miles runAvg speedWind from/ knotsBaromVisibWave heightAir tempDewpointWater temp
2016-May-15 23:15N 01°16' E 104°12'710.3
2016-May-15 22:33N 01°19' E 104°05'8 8.3
2016-May-15 21:32N 01°24' E 103°58'6 6.2
2016-May-15 20:33N 01°27' E 103°53'3 0.5
2016-May-15 14:21N 01°28' E 103°50'2 2.3
2016-May-15 13:29N 01°27' E 103°52'9 9.7
2016-May-15 12:31N 01°24' E 104°01'5 5.7
2016-May-15 11:33N 01°19' E 104°04'3 2.5
2016-May-15 10:33N 01°17' E 104°03'9 8.9
2016-May-15 09:33N 01°14' E 103°54'9 8.6
2016-May-15 08:34N 01°15' E 103°46'2 1.8
2016-May-15 07:34N 01°17' E 103°45'0 0.0
2016-May-15 06:34N 01°17' E 103°45'0 0.0
2016-May-15 05:33N 01°17' E 103°45'0 0.0
2016-May-15 04:33N 01°17' E 103°45'0 0.0
2016-May-15 03:34N 01°17' E 103°45'0 0.0
2016-May-15 02:33N 01°17' E 103°45'0 0.0
2016-May-15 01:34N 01°17' E 103°45'0 0.0
2016-May-15 00:34N 01°17' E 103°45'0 0.0
2016-May-14 23:34N 01°17' E 103°45'3 2.8
2016-May-14 22:34N 01°15' E 103°47'8 7.8
2016-May-14 21:33N 01°14' E 103°55'6 6.5
2016-May-14 20:34N 01°16' E 104°01'1210.0
2016-May-14 19:22N 01°17' E 104°13'  
2016-May-08 09:33N 22°18' E 114°06'2 1.7
2016-May-08 08:17N 22°20' E 114°05'0 0.0
2016-May-08 03:15N 22°20' E 114°05'2 2.5
2016-May-08 02:34N 22°18' E 114°06'15 6.2
2016-May-08 00:08N 22°08' E 114°18'4 6.8
2016-May-07 23:33N 22°08' E 114°22'1212.0
2016-May-07 22:33N 22°09' E 114°35'12317.5
2016-May-07 15:31N 22°44' E 116°43'2116.8
2016-May-07 14:15N 22°57' E 117°01'1316.5
2016-May-07 13:28N 23°05' E 117°12'6616.8
2016-May-07 09:33N 23°44' E 118°10'1817.7
2016-May-07 08:33N 23°54' E 118°25'1918.1
2016-May-07 07:30N 24°06' E 118°42'1718.4
2016-May-07 06:33N 24°18' E 118°55'1818.0
2016-May-07 05:33N 24°30' E 119°10'1818.3
2016-May-07 04:33N 24°43' E 119°25'1818.2
2016-May-07 03:33N 24°56' E 119°39'  

Dump ship's entire track history